sensor_id;sensor_type;location;lat;lon;timestamp;P1;durP1;ratioP1;P2;durP2;ratioP2
15488;SDS011;7846;48.830;9.116;2022-09-24T00:02:00;7.27;;;6.67;;
15488;SDS011;7846;48.830;9.116;2022-09-24T00:04:26;7.77;;;6.57;;
15488;SDS011;7846;48.830;9.116;2022-09-24T00:06:52;7.03;;;6.00;;
15488;SDS011;7846;48.830;9.116;2022-09-24T00:09:19;7.73;;;7.03;;
15488;SDS011;7846;48.830;9.116;2022-09-24T00:11:46;7.53;;;6.30;;
15488;SDS011;7846;48.830;9.116;2022-09-24T00:14:14;7.30;;;6.23;;
15488;SDS011;7846;48.830;9.116;2022-09-24T00:16:41;7.67;;;6.87;;
15488;SDS011;7846;48.830;9.116;2022-09-24T00:19:07;8.17;;;6.60;;
15488;SDS011;7846;48.830;9.116;2022-09-24T00:21:34;7.37;;;6.63;;
15488;SDS011;7846;48.830;9.116;2022-09-24T00:24:04;7.57;;;6.87;;
15488;SDS011;7846;48.830;9.116;2022-09-24T00:26:31;7.20;;;6.50;;
15488;SDS011;7846;48.830;9.116;2022-09-24T00:29:19;7.53;;;6.50;;
15488;SDS011;7846;48.830;9.116;2022-09-24T00:31:46;7.27;;;6.67;;
15488;SDS011;7846;48.830;9.116;2022-09-24T00:34:13;7.57;;;6.17;;
15488;SDS011;7846;48.830;9.116;2022-09-24T00:36:39;8.33;;;6.43;;
15488;SDS011;7846;48.830;9.116;2022-09-24T00:39:05;7.23;;;6.63;;
15488;SDS011;7846;48.830;9.116;2022-09-24T00:41:33;8.93;;;6.60;;
15488;SDS011;7846;48.830;9.116;2022-09-24T00:44:00;8.67;;;6.37;;
15488;SDS011;7846;48.830;9.116;2022-09-24T00:46:36;7.80;;;6.77;;
15488;SDS011;7846;48.830;9.116;2022-09-24T00:51:38;8.00;;;6.87;;
15488;SDS011;7846;48.830;9.116;2022-09-24T00:54:14;7.00;;;6.40;;
15488;SDS011;7846;48.830;9.116;2022-09-24T00:56:44;8.47;;;6.83;;
15488;SDS011;7846;48.830;9.116;2022-09-24T00:59:13;6.50;;;5.90;;
15488;SDS011;7846;48.830;9.116;2022-09-24T01:01:42;6.67;;;6.07;;
15488;SDS011;7846;48.830;9.116;2022-09-24T01:04:11;7.57;;;5.93;;
15488;SDS011;7846;48.830;9.116;2022-09-24T01:06:38;7.10;;;6.10;;
15488;SDS011;7846;48.830;9.116;2022-09-24T01:09:06;7.37;;;6.43;;
15488;SDS011;7846;48.830;9.116;2022-09-24T01:17:41;7.43;;;6.70;;
15488;SDS011;7846;48.830;9.116;2022-09-24T01:23:45;7.43;;;6.37;;
15488;SDS011;7846;48.830;9.116;2022-09-24T01:26:17;7.37;;;6.67;;
15488;SDS011;7846;48.830;9.116;2022-09-24T01:31:56;8.87;;;6.37;;
15488;SDS011;7846;48.830;9.116;2022-09-24T01:34:39;7.40;;;6.57;;
15488;SDS011;7846;48.830;9.116;2022-09-24T01:37:11;6.97;;;6.37;;
15488;SDS011;7846;48.830;9.116;2022-09-24T01:39:40;9.27;;;6.33;;
15488;SDS011;7846;48.830;9.116;2022-09-24T01:42:09;9.10;;;6.90;;
15488;SDS011;7846;48.830;9.116;2022-09-24T01:44:37;7.23;;;6.53;;
15488;SDS011;7846;48.830;9.116;2022-09-24T01:47:08;7.87;;;6.10;;
15488;SDS011;7846;48.830;9.116;2022-09-24T01:49:40;7.50;;;6.23;;
15488;SDS011;7846;48.830;9.116;2022-09-24T01:52:07;7.10;;;6.40;;
15488;SDS011;7846;48.830;9.116;2022-09-24T01:54:38;7.37;;;6.60;;
15488;SDS011;7846;48.830;9.116;2022-09-24T01:57:11;6.80;;;6.10;;
15488;SDS011;7846;48.830;9.116;2022-09-24T01:59:49;7.20;;;6.47;;
15488;SDS011;7846;48.830;9.116;2022-09-24T02:02:29;7.37;;;6.50;;
15488;SDS011;7846;48.830;9.116;2022-09-24T02:05:03;7.17;;;6.50;;
15488;SDS011;7846;48.830;9.116;2022-09-24T02:07:36;6.70;;;6.10;;
15488;SDS011;7846;48.830;9.116;2022-09-24T02:10:14;6.43;;;5.53;;
15488;SDS011;7846;48.830;9.116;2022-09-24T02:12:40;6.73;;;6.13;;
15488;SDS011;7846;48.830;9.116;2022-09-24T02:15:11;6.50;;;5.90;;
15488;SDS011;7846;48.830;9.116;2022-09-24T02:17:44;7.50;;;6.50;;
15488;SDS011;7846;48.830;9.116;2022-09-24T02:20:13;7.03;;;6.40;;
15488;SDS011;7846;48.830;9.116;2022-09-24T02:22:43;8.03;;;6.30;;
15488;SDS011;7846;48.830;9.116;2022-09-24T02:25:13;6.37;;;5.70;;
15488;SDS011;7846;48.830;9.116;2022-09-24T02:27:44;6.60;;;6.00;;
15488;SDS011;7846;48.830;9.116;2022-09-24T02:30:09;6.53;;;5.70;;
15488;SDS011;7846;48.830;9.116;2022-09-24T02:32:35;6.33;;;5.70;;
15488;SDS011;7846;48.830;9.116;2022-09-24T02:35:05;7.30;;;5.80;;
15488;SDS011;7846;48.830;9.116;2022-09-24T02:37:34;7.93;;;5.90;;
15488;SDS011;7846;48.830;9.116;2022-09-24T02:40:03;6.10;;;5.60;;
15488;SDS011;7846;48.830;9.116;2022-09-24T02:42:31;6.67;;;5.93;;
15488;SDS011;7846;48.830;9.116;2022-09-24T02:44:56;7.67;;;5.60;;
15488;SDS011;7846;48.830;9.116;2022-09-24T02:47:24;7.93;;;6.17;;
15488;SDS011;7846;48.830;9.116;2022-09-24T02:49:50;7.20;;;5.47;;
15488;SDS011;7846;48.830;9.116;2022-09-24T02:52:15;6.67;;;6.07;;
15488;SDS011;7846;48.830;9.116;2022-09-24T02:54:41;6.87;;;5.60;;
15488;SDS011;7846;48.830;9.116;2022-09-24T02:57:06;7.57;;;6.20;;
15488;SDS011;7846;48.830;9.116;2022-09-24T02:59:33;7.03;;;6.43;;
15488;SDS011;7846;48.830;9.116;2022-09-24T03:02:00;7.80;;;6.43;;
15488;SDS011;7846;48.830;9.116;2022-09-24T03:04:25;7.33;;;6.30;;
15488;SDS011;7846;48.830;9.116;2022-09-24T03:06:51;8.97;;;6.20;;
15488;SDS011;7846;48.830;9.116;2022-09-24T03:09:18;9.03;;;6.90;;
15488;SDS011;7846;48.830;9.116;2022-09-24T03:11:44;6.77;;;6.10;;
15488;SDS011;7846;48.830;9.116;2022-09-24T03:14:10;6.37;;;5.83;;
15488;SDS011;7846;48.830;9.116;2022-09-24T03:16:35;8.13;;;6.60;;
15488;SDS011;7846;48.830;9.116;2022-09-24T03:19:01;6.43;;;5.67;;
15488;SDS011;7846;48.830;9.116;2022-09-24T03:21:26;7.17;;;5.87;;
15488;SDS011;7846;48.830;9.116;2022-09-24T03:23:55;6.80;;;6.07;;
15488;SDS011;7846;48.830;9.116;2022-09-24T03:26:20;7.23;;;6.10;;
15488;SDS011;7846;48.830;9.116;2022-09-24T03:28:46;7.23;;;6.57;;
15488;SDS011;7846;48.830;9.116;2022-09-24T03:31:12;7.97;;;6.77;;
15488;SDS011;7846;48.830;9.116;2022-09-24T03:33:41;7.30;;;6.60;;
15488;SDS011;7846;48.830;9.116;2022-09-24T03:36:14;7.40;;;6.70;;
15488;SDS011;7846;48.830;9.116;2022-09-24T03:38:42;7.27;;;6.57;;
15488;SDS011;7846;48.830;9.116;2022-09-24T03:41:10;7.17;;;6.40;;
15488;SDS011;7846;48.830;9.116;2022-09-24T03:43:36;7.67;;;7.03;;
15488;SDS011;7846;48.830;9.116;2022-09-24T03:46:03;8.87;;;7.10;;
15488;SDS011;7846;48.830;9.116;2022-09-24T03:48:33;7.70;;;6.90;;
15488;SDS011;7846;48.830;9.116;2022-09-24T03:51:04;9.53;;;6.80;;
15488;SDS011;7846;48.830;9.116;2022-09-24T03:53:34;8.10;;;6.90;;
15488;SDS011;7846;48.830;9.116;2022-09-24T03:56:00;7.50;;;6.80;;
15488;SDS011;7846;48.830;9.116;2022-09-24T03:58:26;7.57;;;6.83;;
15488;SDS011;7846;48.830;9.116;2022-09-24T04:00:53;8.10;;;7.30;;
15488;SDS011;7846;48.830;9.116;2022-09-24T04:03:19;8.13;;;7.10;;
15488;SDS011;7846;48.830;9.116;2022-09-24T04:05:48;7.97;;;7.27;;
15488;SDS011;7846;48.830;9.116;2022-09-24T04:08:15;8.40;;;7.10;;
15488;SDS011;7846;48.830;9.116;2022-09-24T04:10:44;8.07;;;7.27;;
15488;SDS011;7846;48.830;9.116;2022-09-24T04:13:10;8.53;;;7.27;;
15488;SDS011;7846;48.830;9.116;2022-09-24T04:15:36;8.93;;;7.97;;
15488;SDS011;7846;48.830;9.116;2022-09-24T04:18:01;8.67;;;7.87;;
15488;SDS011;7846;48.830;9.116;2022-09-24T04:20:27;9.57;;;8.20;;
15488;SDS011;7846;48.830;9.116;2022-09-24T04:22:55;8.80;;;8.00;;
15488;SDS011;7846;48.830;9.116;2022-09-24T04:25:23;8.60;;;7.73;;
15488;SDS011;7846;48.830;9.116;2022-09-24T04:27:52;10.27;;;7.87;;
15488;SDS011;7846;48.830;9.116;2022-09-24T04:30:19;9.30;;;7.43;;
15488;SDS011;7846;48.830;9.116;2022-09-24T04:32:45;8.73;;;7.67;;
15488;SDS011;7846;48.830;9.116;2022-09-24T04:35:11;8.07;;;7.33;;
15488;SDS011;7846;48.830;9.116;2022-09-24T04:37:36;8.27;;;7.40;;
15488;SDS011;7846;48.830;9.116;2022-09-24T04:40:05;10.17;;;8.20;;
15488;SDS011;7846;48.830;9.116;2022-09-24T04:42:37;8.60;;;7.80;;
15488;SDS011;7846;48.830;9.116;2022-09-24T04:45:13;8.90;;;8.10;;
15488;SDS011;7846;48.830;9.116;2022-09-24T04:47:41;9.87;;;8.67;;
15488;SDS011;7846;48.830;9.116;2022-09-24T04:50:08;9.10;;;8.17;;
15488;SDS011;7846;48.830;9.116;2022-09-24T04:52:37;9.20;;;8.30;;
15488;SDS011;7846;48.830;9.116;2022-09-24T04:55:03;9.97;;;8.97;;
15488;SDS011;7846;48.830;9.116;2022-09-24T04:57:29;9.80;;;8.77;;
15488;SDS011;7846;48.830;9.116;2022-09-24T05:00:01;9.13;;;8.33;;
15488;SDS011;7846;48.830;9.116;2022-09-24T05:02:28;9.80;;;8.80;;
15488;SDS011;7846;48.830;9.116;2022-09-24T05:04:53;10.37;;;9.43;;
15488;SDS011;7846;48.830;9.116;2022-09-24T05:07:20;9.90;;;8.90;;
15488;SDS011;7846;48.830;9.116;2022-09-24T05:09:48;10.33;;;9.43;;
15488;SDS011;7846;48.830;9.116;2022-09-24T05:12:14;11.70;;;9.43;;
15488;SDS011;7846;48.830;9.116;2022-09-24T05:14:40;10.33;;;9.13;;
15488;SDS011;7846;48.830;9.116;2022-09-24T05:17:06;10.23;;;9.23;;
15488;SDS011;7846;48.830;9.116;2022-09-24T05:19:31;11.13;;;9.07;;
15488;SDS011;7846;48.830;9.116;2022-09-24T05:21:57;9.93;;;8.87;;
15488;SDS011;7846;48.830;9.116;2022-09-24T05:24:22;9.00;;;8.10;;
15488;SDS011;7846;48.830;9.116;2022-09-24T05:26:48;11.30;;;8.87;;
15488;SDS011;7846;48.830;9.116;2022-09-24T05:29:32;9.47;;;8.60;;
15488;SDS011;7846;48.830;9.116;2022-09-24T05:31:57;11.27;;;8.87;;
15488;SDS011;7846;48.830;9.116;2022-09-24T05:34:24;10.17;;;8.93;;
15488;SDS011;7846;48.830;9.116;2022-09-24T05:36:49;11.47;;;9.27;;
15488;SDS011;7846;48.830;9.116;2022-09-24T05:39:15;9.87;;;8.97;;
15488;SDS011;7846;48.830;9.116;2022-09-24T05:41:41;9.83;;;8.93;;
15488;SDS011;7846;48.830;9.116;2022-09-24T05:44:08;10.00;;;9.03;;
15488;SDS011;7846;48.830;9.116;2022-09-24T05:46:35;10.77;;;8.83;;
15488;SDS011;7846;48.830;9.116;2022-09-24T05:49:01;8.73;;;7.83;;
15488;SDS011;7846;48.830;9.116;2022-09-24T05:51:26;8.20;;;7.40;;
15488;SDS011;7846;48.830;9.116;2022-09-24T05:53:53;8.13;;;7.30;;
15488;SDS011;7846;48.830;9.116;2022-09-24T05:56:18;8.43;;;7.00;;
15488;SDS011;7846;48.830;9.116;2022-09-24T05:58:43;7.60;;;6.90;;
15488;SDS011;7846;48.830;9.116;2022-09-24T06:01:12;8.00;;;6.90;;
15488;SDS011;7846;48.830;9.116;2022-09-24T06:03:38;9.57;;;6.83;;
15488;SDS011;7846;48.830;9.116;2022-09-24T06:06:03;8.30;;;6.93;;
15488;SDS011;7846;48.830;9.116;2022-09-24T06:08:30;11.87;;;7.30;;
15488;SDS011;7846;48.830;9.116;2022-09-24T06:10:59;8.53;;;6.90;;
15488;SDS011;7846;48.830;9.116;2022-09-24T06:13:26;8.13;;;6.80;;
15488;SDS011;7846;48.830;9.116;2022-09-24T06:15:53;7.57;;;6.30;;
15488;SDS011;7846;48.830;9.116;2022-09-24T06:18:24;7.30;;;6.60;;
15488;SDS011;7846;48.830;9.116;2022-09-24T06:20:49;6.90;;;6.20;;
15488;SDS011;7846;48.830;9.116;2022-09-24T06:23:15;7.60;;;6.80;;
15488;SDS011;7846;48.830;9.116;2022-09-24T06:25:40;7.67;;;6.97;;
15488;SDS011;7846;48.830;9.116;2022-09-24T06:28:08;7.90;;;6.60;;
15488;SDS011;7846;48.830;9.116;2022-09-24T06:30:34;8.73;;;7.43;;
15488;SDS011;7846;48.830;9.116;2022-09-24T06:33:11;8.83;;;7.37;;
15488;SDS011;7846;48.830;9.116;2022-09-24T06:35:38;8.17;;;7.37;;
15488;SDS011;7846;48.830;9.116;2022-09-24T06:38:05;8.23;;;7.20;;
15488;SDS011;7846;48.830;9.116;2022-09-24T06:40:31;8.10;;;7.30;;
15488;SDS011;7846;48.830;9.116;2022-09-24T06:42:57;7.77;;;7.00;;
15488;SDS011;7846;48.830;9.116;2022-09-24T06:45:23;7.83;;;7.07;;
15488;SDS011;7846;48.830;9.116;2022-09-24T06:47:53;9.07;;;6.87;;
15488;SDS011;7846;48.830;9.116;2022-09-24T06:50:19;8.73;;;6.07;;
15488;SDS011;7846;48.830;9.116;2022-09-24T06:52:45;8.97;;;6.60;;
15488;SDS011;7846;48.830;9.116;2022-09-24T06:55:12;7.90;;;6.53;;
15488;SDS011;7846;48.830;9.116;2022-09-24T06:57:37;7.30;;;6.67;;
15488;SDS011;7846;48.830;9.116;2022-09-24T07:00:03;8.07;;;6.67;;
15488;SDS011;7846;48.830;9.116;2022-09-24T07:02:29;8.97;;;7.33;;
15488;SDS011;7846;48.830;9.116;2022-09-24T07:04:55;7.43;;;6.30;;
15488;SDS011;7846;48.830;9.116;2022-09-24T07:07:20;7.10;;;6.50;;
15488;SDS011;7846;48.830;9.116;2022-09-24T07:09:59;8.83;;;6.47;;
15488;SDS011;7846;48.830;9.116;2022-09-24T07:12:29;8.80;;;7.30;;
15488;SDS011;7846;48.830;9.116;2022-09-24T07:14:56;8.00;;;6.77;;
15488;SDS011;7846;48.830;9.116;2022-09-24T07:17:25;7.07;;;6.43;;
15488;SDS011;7846;48.830;9.116;2022-09-24T07:19:55;7.27;;;6.57;;
15488;SDS011;7846;48.830;9.116;2022-09-24T07:22:21;8.40;;;6.27;;
15488;SDS011;7846;48.830;9.116;2022-09-24T07:24:48;8.13;;;6.60;;
15488;SDS011;7846;48.830;9.116;2022-09-24T07:27:13;7.27;;;6.57;;
15488;SDS011;7846;48.830;9.116;2022-09-24T07:29:39;6.73;;;6.13;;
15488;SDS011;7846;48.830;9.116;2022-09-24T07:32:04;7.03;;;6.27;;
15488;SDS011;7846;48.830;9.116;2022-09-24T07:34:30;6.70;;;6.13;;
15488;SDS011;7846;48.830;9.116;2022-09-24T07:36:55;8.40;;;7.00;;
15488;SDS011;7846;48.830;9.116;2022-09-24T07:39:22;7.23;;;6.50;;
15488;SDS011;7846;48.830;9.116;2022-09-24T07:41:48;7.70;;;7.00;;
15488;SDS011;7846;48.830;9.116;2022-09-24T07:44:17;8.53;;;6.17;;
15488;SDS011;7846;48.830;9.116;2022-09-24T07:46:47;8.20;;;6.70;;
15488;SDS011;7846;48.830;9.116;2022-09-24T07:49:16;8.93;;;7.03;;
15488;SDS011;7846;48.830;9.116;2022-09-24T07:51:42;9.07;;;6.73;;
15488;SDS011;7846;48.830;9.116;2022-09-24T07:54:08;7.40;;;6.70;;
15488;SDS011;7846;48.830;9.116;2022-09-24T07:56:34;8.83;;;6.50;;
15488;SDS011;7846;48.830;9.116;2022-09-24T07:59:00;7.17;;;6.40;;
15488;SDS011;7846;48.830;9.116;2022-09-24T08:01:25;9.27;;;6.50;;
15488;SDS011;7846;48.830;9.116;2022-09-24T08:03:51;6.43;;;5.83;;
15488;SDS011;7846;48.830;9.116;2022-09-24T08:06:17;6.70;;;5.70;;
15488;SDS011;7846;48.830;9.116;2022-09-24T08:08:44;6.67;;;5.87;;
15488;SDS011;7846;48.830;9.116;2022-09-24T08:11:12;6.70;;;5.50;;
15488;SDS011;7846;48.830;9.116;2022-09-24T08:13:38;7.27;;;4.73;;
15488;SDS011;7846;48.830;9.116;2022-09-24T08:16:04;6.23;;;5.03;;
15488;SDS011;7846;48.830;9.116;2022-09-24T08:18:30;4.77;;;4.37;;
15488;SDS011;7846;48.830;9.116;2022-09-24T08:20:57;5.30;;;3.70;;
15488;SDS011;7846;48.830;9.116;2022-09-24T08:23:26;5.40;;;3.80;;
15488;SDS011;7846;48.830;9.116;2022-09-24T08:25:55;4.63;;;4.10;;
15488;SDS011;7846;48.830;9.116;2022-09-24T08:28:20;7.53;;;4.00;;
15488;SDS011;7846;48.830;9.116;2022-09-24T08:30:49;7.07;;;4.20;;
15488;SDS011;7846;48.830;9.116;2022-09-24T08:33:14;5.70;;;4.10;;
15488;SDS011;7846;48.830;9.116;2022-09-24T08:35:40;5.83;;;4.27;;
15488;SDS011;7846;48.830;9.116;2022-09-24T08:38:06;4.53;;;4.10;;
15488;SDS011;7846;48.830;9.116;2022-09-24T08:40:38;6.30;;;4.53;;
15488;SDS011;7846;48.830;9.116;2022-09-24T08:43:21;5.47;;;4.23;;
15488;SDS011;7846;48.830;9.116;2022-09-24T08:46:07;5.73;;;4.50;;
15488;SDS011;7846;48.830;9.116;2022-09-24T08:49:02;5.37;;;4.73;;
15488;SDS011;7846;48.830;9.116;2022-09-24T08:51:30;4.13;;;3.73;;
15488;SDS011;7846;48.830;9.116;2022-09-24T08:54:10;5.63;;;4.10;;
15488;SDS011;7846;48.830;9.116;2022-09-24T08:56:39;4.17;;;3.87;;
15488;SDS011;7846;48.830;9.116;2022-09-24T09:01:51;7.20;;;5.00;;
15488;SDS011;7846;48.830;9.116;2022-09-24T09:10:38;4.07;;;3.60;;
15488;SDS011;7846;48.830;9.116;2022-09-24T09:13:15;5.57;;;4.10;;
15488;SDS011;7846;48.830;9.116;2022-09-24T09:15:49;4.10;;;3.70;;
15488;SDS011;7846;48.830;9.116;2022-09-24T09:21:12;4.23;;;3.60;;
15488;SDS011;7846;48.830;9.116;2022-09-24T09:23:44;6.20;;;3.30;;
15488;SDS011;7846;48.830;9.116;2022-09-24T09:26:12;3.73;;;3.33;;
15488;SDS011;7846;48.830;9.116;2022-09-24T09:28:37;4.63;;;3.43;;
15488;SDS011;7846;48.830;9.116;2022-09-24T09:37:03;3.50;;;3.20;;
15488;SDS011;7846;48.830;9.116;2022-09-24T09:39:51;4.27;;;2.80;;
15488;SDS011;7846;48.830;9.116;2022-09-24T09:42:32;3.00;;;2.73;;
15488;SDS011;7846;48.830;9.116;2022-09-24T09:48:03;4.00;;;2.83;;
15488;SDS011;7846;48.830;9.116;2022-09-24T09:55:51;2.40;;;2.20;;
15488;SDS011;7846;48.830;9.116;2022-09-24T09:58:26;2.53;;;2.33;;
15488;SDS011;7846;48.830;9.116;2022-09-24T10:01:06;2.13;;;1.90;;
15488;SDS011;7846;48.830;9.116;2022-09-24T10:06:28;2.60;;;2.40;;
15488;SDS011;7846;48.830;9.116;2022-09-24T10:09:06;2.57;;;2.37;;
15488;SDS011;7846;48.830;9.116;2022-09-24T10:11:45;3.40;;;2.80;;
15488;SDS011;7846;48.830;9.116;2022-09-24T10:14:12;4.33;;;2.50;;
15488;SDS011;7846;48.830;9.116;2022-09-24T10:16:41;2.60;;;2.40;;
15488;SDS011;7846;48.830;9.116;2022-09-24T10:19:13;2.80;;;2.60;;
15488;SDS011;7846;48.830;9.116;2022-09-24T10:21:43;3.47;;;2.80;;
15488;SDS011;7846;48.830;9.116;2022-09-24T10:24:22;3.20;;;3.00;;
15488;SDS011;7846;48.830;9.116;2022-09-24T10:26:51;3.07;;;2.77;;
15488;SDS011;7846;48.830;9.116;2022-09-24T10:32:12;2.57;;;2.37;;
15488;SDS011;7846;48.830;9.116;2022-09-24T10:34:40;3.50;;;2.90;;
15488;SDS011;7846;48.830;9.116;2022-09-24T10:37:12;2.93;;;2.60;;
15488;SDS011;7846;48.830;9.116;2022-09-24T10:39:39;2.70;;;2.50;;
15488;SDS011;7846;48.830;9.116;2022-09-24T10:42:05;2.90;;;2.60;;
15488;SDS011;7846;48.830;9.116;2022-09-24T10:44:35;2.50;;;2.30;;
15488;SDS011;7846;48.830;9.116;2022-09-24T10:47:22;2.73;;;2.40;;
15488;SDS011;7846;48.830;9.116;2022-09-24T11:09:27;2.50;;;2.20;;
15488;SDS011;7846;48.830;9.116;2022-09-24T11:12:11;2.73;;;2.30;;
15488;SDS011;7846;48.830;9.116;2022-09-24T11:15:08;2.70;;;2.50;;
15488;SDS011;7846;48.830;9.116;2022-09-24T11:21:13;2.33;;;2.20;;
15488;SDS011;7846;48.830;9.116;2022-09-24T11:26:57;2.20;;;2.10;;
15488;SDS011;7846;48.830;9.116;2022-09-24T11:30:20;2.30;;;2.10;;
15488;SDS011;7846;48.830;9.116;2022-09-24T11:35:51;2.47;;;2.27;;
15488;SDS011;7846;48.830;9.116;2022-09-24T11:38:56;2.50;;;2.30;;
15488;SDS011;7846;48.830;9.116;2022-09-24T11:44:48;2.27;;;2.10;;
15488;SDS011;7846;48.830;9.116;2022-09-24T11:50:15;2.07;;;1.90;;
15488;SDS011;7846;48.830;9.116;2022-09-24T11:53:11;2.00;;;1.90;;
15488;SDS011;7846;48.830;9.116;2022-09-24T11:55:56;2.50;;;2.30;;
15488;SDS011;7846;48.830;9.116;2022-09-24T11:58:26;2.30;;;2.20;;
15488;SDS011;7846;48.830;9.116;2022-09-24T12:03:35;2.03;;;1.93;;
15488;SDS011;7846;48.830;9.116;2022-09-24T12:06:12;2.13;;;1.93;;
15488;SDS011;7846;48.830;9.116;2022-09-24T12:08:49;2.37;;;2.20;;
15488;SDS011;7846;48.830;9.116;2022-09-24T12:14:20;2.20;;;2.10;;
15488;SDS011;7846;48.830;9.116;2022-09-24T12:16:50;2.97;;;2.30;;
15488;SDS011;7846;48.830;9.116;2022-09-24T12:19:21;2.30;;;1.90;;
15488;SDS011;7846;48.830;9.116;2022-09-24T12:21:52;2.10;;;1.90;;
15488;SDS011;7846;48.830;9.116;2022-09-24T12:26:53;3.73;;;2.30;;
15488;SDS011;7846;48.830;9.116;2022-09-24T12:29:36;2.60;;;2.10;;
15488;SDS011;7846;48.830;9.116;2022-09-24T12:32:38;2.70;;;2.20;;
15488;SDS011;7846;48.830;9.116;2022-09-24T12:35:25;3.53;;;2.57;;
15488;SDS011;7846;48.830;9.116;2022-09-24T12:38:21;2.97;;;2.77;;
15488;SDS011;7846;48.830;9.116;2022-09-24T12:41:22;2.97;;;2.63;;
15488;SDS011;7846;48.830;9.116;2022-09-24T12:46:43;3.67;;;2.83;;
15488;SDS011;7846;48.830;9.116;2022-09-24T12:49:27;3.40;;;2.80;;
15488;SDS011;7846;48.830;9.116;2022-09-24T12:51:57;2.70;;;2.50;;
15488;SDS011;7846;48.830;9.116;2022-09-24T13:02:20;3.27;;;2.97;;
15488;SDS011;7846;48.830;9.116;2022-09-24T13:05:03;4.23;;;3.23;;
15488;SDS011;7846;48.830;9.116;2022-09-24T13:07:53;4.23;;;3.20;;
15488;SDS011;7846;48.830;9.116;2022-09-24T13:11:00;3.70;;;3.40;;
15488;SDS011;7846;48.830;9.116;2022-09-24T13:13:34;3.90;;;2.97;;
15488;SDS011;7846;48.830;9.116;2022-09-24T13:16:13;3.73;;;3.27;;
15488;SDS011;7846;48.830;9.116;2022-09-24T13:18:54;3.60;;;3.30;;
15488;SDS011;7846;48.830;9.116;2022-09-24T13:21:24;4.87;;;3.80;;
15488;SDS011;7846;48.830;9.116;2022-09-24T13:23:53;3.27;;;2.97;;
15488;SDS011;7846;48.830;9.116;2022-09-24T13:26:31;3.03;;;2.83;;
15488;SDS011;7846;48.830;9.116;2022-09-24T13:29:05;3.50;;;3.20;;
15488;SDS011;7846;48.830;9.116;2022-09-24T13:31:47;3.37;;;3.13;;
15488;SDS011;7846;48.830;9.116;2022-09-24T13:34:20;3.30;;;3.10;;
15488;SDS011;7846;48.830;9.116;2022-09-24T13:36:56;3.97;;;3.67;;
15488;SDS011;7846;48.830;9.116;2022-09-24T13:39:34;4.10;;;3.73;;
15488;SDS011;7846;48.830;9.116;2022-09-24T13:45:10;4.50;;;3.80;;
15488;SDS011;7846;48.830;9.116;2022-09-24T13:47:50;4.40;;;4.00;;
15488;SDS011;7846;48.830;9.116;2022-09-24T13:50:54;4.27;;;3.87;;
15488;SDS011;7846;48.830;9.116;2022-09-24T13:53:16;4.10;;;3.80;;
15488;SDS011;7846;48.830;9.116;2022-09-24T13:55:58;3.80;;;3.50;;
15488;SDS011;7846;48.830;9.116;2022-09-24T13:58:26;4.00;;;3.60;;
15488;SDS011;7846;48.830;9.116;2022-09-24T14:01:03;3.73;;;3.43;;
15488;SDS011;7846;48.830;9.116;2022-09-24T14:03:34;4.40;;;4.00;;
15488;SDS011;7846;48.830;9.116;2022-09-24T14:06:08;4.20;;;3.80;;
15488;SDS011;7846;48.830;9.116;2022-09-24T14:08:39;3.43;;;3.23;;
15488;SDS011;7846;48.830;9.116;2022-09-24T14:11:06;4.17;;;3.70;;
15488;SDS011;7846;48.830;9.116;2022-09-24T14:13:39;4.27;;;3.87;;
15488;SDS011;7846;48.830;9.116;2022-09-24T14:16:15;4.17;;;3.80;;
15488;SDS011;7846;48.830;9.116;2022-09-24T14:18:45;4.00;;;3.60;;
15488;SDS011;7846;48.830;9.116;2022-09-24T14:21:19;4.20;;;3.90;;
15488;SDS011;7846;48.830;9.116;2022-09-24T14:23:52;3.60;;;3.30;;
15488;SDS011;7846;48.830;9.116;2022-09-24T14:26:28;3.67;;;3.37;;
15488;SDS011;7846;48.830;9.116;2022-09-24T14:28:57;4.07;;;3.63;;
15488;SDS011;7846;48.830;9.116;2022-09-24T14:31:30;3.87;;;3.40;;
15488;SDS011;7846;48.830;9.116;2022-09-24T14:33:56;3.40;;;3.20;;
15488;SDS011;7846;48.830;9.116;2022-09-24T14:36:25;4.00;;;3.60;;
15488;SDS011;7846;48.830;9.116;2022-09-24T14:41:28;4.13;;;3.73;;
15488;SDS011;7846;48.830;9.116;2022-09-24T14:46:37;3.50;;;3.20;;
15488;SDS011;7846;48.830;9.116;2022-09-24T14:49:17;3.67;;;3.37;;
15488;SDS011;7846;48.830;9.116;2022-09-24T14:52:20;3.90;;;3.50;;
15488;SDS011;7846;48.830;9.116;2022-09-24T14:57:44;5.47;;;3.50;;
15488;SDS011;7846;48.830;9.116;2022-09-24T15:01:12;4.23;;;3.83;;
15488;SDS011;7846;48.830;9.116;2022-09-24T15:03:15;4.10;;;3.80;;
15488;SDS011;7846;48.830;9.116;2022-09-24T15:05:44;4.40;;;4.00;;
15488;SDS011;7846;48.830;9.116;2022-09-24T15:10:52;4.20;;;3.90;;
15488;SDS011;7846;48.830;9.116;2022-09-24T15:13:21;4.73;;;4.30;;
15488;SDS011;7846;48.830;9.116;2022-09-24T15:15:48;4.40;;;4.10;;
15488;SDS011;7846;48.830;9.116;2022-09-24T15:18:30;3.93;;;3.63;;
15488;SDS011;7846;48.830;9.116;2022-09-24T15:20:56;4.30;;;3.90;;
15488;SDS011;7846;48.830;9.116;2022-09-24T15:23:24;4.50;;;4.10;;
15488;SDS011;7846;48.830;9.116;2022-09-24T15:25:49;4.40;;;4.03;;
15488;SDS011;7846;48.830;9.116;2022-09-24T15:28:18;5.10;;;4.70;;
15488;SDS011;7846;48.830;9.116;2022-09-24T15:30:44;4.83;;;4.33;;
15488;SDS011;7846;48.830;9.116;2022-09-24T15:33:11;4.93;;;4.47;;
15488;SDS011;7846;48.830;9.116;2022-09-24T15:35:37;4.80;;;4.30;;
15488;SDS011;7846;48.830;9.116;2022-09-24T15:38:03;4.80;;;4.30;;
15488;SDS011;7846;48.830;9.116;2022-09-24T15:40:28;4.73;;;4.30;;
15488;SDS011;7846;48.830;9.116;2022-09-24T15:42:58;5.80;;;5.20;;
15488;SDS011;7846;48.830;9.116;2022-09-24T15:45:25;6.10;;;5.60;;
15488;SDS011;7846;48.830;9.116;2022-09-24T15:47:50;6.30;;;5.80;;
15488;SDS011;7846;48.830;9.116;2022-09-24T15:50:17;6.33;;;5.67;;
15488;SDS011;7846;48.830;9.116;2022-09-24T15:52:49;7.63;;;5.67;;
15488;SDS011;7846;48.830;9.116;2022-09-24T15:55:17;5.93;;;5.43;;
15488;SDS011;7846;48.830;9.116;2022-09-24T15:57:45;5.80;;;5.30;;
15488;SDS011;7846;48.830;9.116;2022-09-24T16:00:13;5.23;;;4.73;;
15488;SDS011;7846;48.830;9.116;2022-09-24T16:02:40;5.50;;;5.00;;
15488;SDS011;7846;48.830;9.116;2022-09-24T16:05:10;5.13;;;4.73;;
15488;SDS011;7846;48.830;9.116;2022-09-24T16:07:37;5.50;;;5.00;;
15488;SDS011;7846;48.830;9.116;2022-09-24T16:10:02;6.00;;;5.20;;
15488;SDS011;7846;48.830;9.116;2022-09-24T16:12:28;5.67;;;5.17;;
15488;SDS011;7846;48.830;9.116;2022-09-24T16:14:53;5.87;;;5.37;;
15488;SDS011;7846;48.830;9.116;2022-09-24T16:17:23;6.07;;;5.57;;
15488;SDS011;7846;48.830;9.116;2022-09-24T16:19:49;5.93;;;5.47;;
15488;SDS011;7846;48.830;9.116;2022-09-24T16:22:14;6.00;;;5.40;;
15488;SDS011;7846;48.830;9.116;2022-09-24T16:24:40;6.23;;;5.63;;
15488;SDS011;7846;48.830;9.116;2022-09-24T16:27:06;5.80;;;5.30;;
15488;SDS011;7846;48.830;9.116;2022-09-24T16:29:32;6.20;;;5.60;;
15488;SDS011;7846;48.830;9.116;2022-09-24T16:31:57;6.07;;;5.57;;
15488;SDS011;7846;48.830;9.116;2022-09-24T16:34:23;5.83;;;5.40;;
15488;SDS011;7846;48.830;9.116;2022-09-24T16:36:49;6.20;;;5.70;;
15488;SDS011;7846;48.830;9.116;2022-09-24T16:39:14;7.23;;;6.37;;
15488;SDS011;7846;48.830;9.116;2022-09-24T16:41:40;8.30;;;7.50;;
15488;SDS011;7846;48.830;9.116;2022-09-24T16:44:05;8.37;;;7.67;;
15488;SDS011;7846;48.830;9.116;2022-09-24T16:46:31;9.23;;;8.17;;
15488;SDS011;7846;48.830;9.116;2022-09-24T16:48:56;10.30;;;9.20;;
15488;SDS011;7846;48.830;9.116;2022-09-24T16:51:21;9.47;;;8.03;;
15488;SDS011;7846;48.830;9.116;2022-09-24T16:53:52;7.80;;;7.20;;
15488;SDS011;7846;48.830;9.116;2022-09-24T16:56:19;7.60;;;6.90;;
15488;SDS011;7846;48.830;9.116;2022-09-24T16:58:45;8.57;;;7.67;;
15488;SDS011;7846;48.830;9.116;2022-09-24T17:01:12;8.93;;;8.20;;
15488;SDS011;7846;48.830;9.116;2022-09-24T17:03:38;8.80;;;8.03;;
15488;SDS011;7846;48.830;9.116;2022-09-24T17:06:04;9.40;;;8.60;;
15488;SDS011;7846;48.830;9.116;2022-09-24T17:08:31;8.80;;;8.00;;
15488;SDS011;7846;48.830;9.116;2022-09-24T17:11:17;10.63;;;9.73;;
15488;SDS011;7846;48.830;9.116;2022-09-24T17:13:43;10.17;;;9.27;;
15488;SDS011;7846;48.830;9.116;2022-09-24T17:18:55;8.80;;;7.93;;